createdAt,value
2022-10-13T00:00:28.297Z,59.78
2022-10-13T00:02:54.931Z,60.01
2022-10-13T00:05:22.099Z,60.31
2022-10-13T00:07:48.464Z,60.25
2022-10-13T00:10:14.793Z,60.70
2022-10-13T00:12:41.187Z,60.91
2022-10-13T00:15:08.676Z,60.78
2022-10-13T00:17:36.472Z,60.76
2022-10-13T00:20:04.271Z,61.02
2022-10-13T00:22:30.666Z,61.62
2022-10-13T00:24:57.083Z,61.88
2022-10-13T00:27:23.519Z,61.77
2022-10-13T00:29:49.839Z,61.78
2022-10-13T00:32:16.492Z,61.52
2022-10-13T00:34:43.165Z,61.79
2022-10-13T00:37:09.510Z,61.81
2022-10-13T00:39:37.559Z,62.18
2022-10-13T00:42:04.554Z,62.15
2022-10-13T00:45:12.299Z,62.04
2022-10-13T00:47:42.535Z,61.98
2022-10-13T00:50:16.566Z,61.95
2022-10-13T00:52:44.051Z,62.64
2022-10-13T00:55:13.549Z,62.34
2022-10-13T00:57:43.480Z,62.47
2022-10-13T01:00:10.563Z,62.47
2022-10-13T01:02:38.206Z,62.62
2022-10-13T01:05:07.068Z,62.42
2022-10-13T01:07:35.084Z,62.62
2022-10-13T01:10:02.593Z,62.98
2022-10-13T01:12:38.594Z,62.58
2022-10-13T01:15:15.276Z,62.57
2022-10-13T01:17:56.872Z,62.65
2022-10-13T01:20:41.912Z,62.97
2022-10-13T01:23:45.377Z,62.68
2022-10-13T01:27:00.128Z,62.72
2022-10-13T01:29:45.499Z,62.92
2022-10-13T01:32:29.038Z,62.80
2022-10-13T01:35:07.984Z,63.24
2022-10-13T01:37:48.941Z,63.13
2022-10-13T01:40:23.785Z,63.40
2022-10-13T01:43:02.252Z,63.66
2022-10-13T01:45:33.809Z,63.88
2022-10-13T01:48:01.979Z,64.36
2022-10-13T01:50:28.433Z,64.48
2022-10-13T01:52:55.823Z,64.85
2022-10-13T01:55:22.390Z,64.96
2022-10-13T01:57:48.727Z,64.84
2022-10-13T02:00:18.967Z,64.68
2022-10-13T02:02:54.278Z,64.54
2022-10-13T02:05:35.818Z,64.62
2022-10-13T02:08:25.055Z,64.34
2022-10-13T02:11:14.473Z,64.49
2022-10-13T02:13:47.331Z,64.38
2022-10-13T02:16:16.004Z,64.54
2022-10-13T02:18:44.143Z,64.78
2022-10-13T02:21:10.611Z,64.52
2022-10-13T02:23:37.043Z,65.00
2022-10-13T02:26:03.804Z,65.05
2022-10-13T02:28:30.227Z,65.00
2022-10-13T02:30:56.704Z,65.04
2022-10-13T02:33:23.108Z,65.02
2022-10-13T02:35:49.456Z,65.04
2022-10-13T02:38:15.874Z,65.11
2022-10-13T02:40:42.311Z,64.97
2022-10-13T02:43:08.651Z,64.90
2022-10-13T02:45:35.185Z,64.49
2022-10-13T02:48:01.596Z,64.65
2022-10-13T02:50:28.025Z,64.67
2022-10-13T02:52:54.386Z,64.78
2022-10-13T02:55:21.037Z,64.63
2022-10-13T02:57:47.387Z,64.80
2022-10-13T03:00:15.032Z,64.80
2022-10-13T03:02:41.759Z,65.09
2022-10-13T03:05:08.813Z,64.80
2022-10-13T03:07:35.172Z,64.96
2022-10-13T03:10:01.763Z,65.08
2022-10-13T03:12:28.151Z,65.22
2022-10-13T03:14:54.506Z,65.28
2022-10-13T03:17:20.863Z,65.27
2022-10-13T03:19:47.188Z,65.39
2022-10-13T03:22:15.328Z,65.25
2022-10-13T03:24:42.608Z,65.58
2022-10-13T03:27:09.022Z,65.41
2022-10-13T03:29:35.344Z,65.59
2022-10-13T03:32:01.867Z,65.28
2022-10-13T03:34:28.195Z,65.28
2022-10-13T03:36:54.518Z,65.15
2022-10-13T03:39:22.195Z,65.06
2022-10-13T03:41:48.544Z,65.05
2022-10-13T03:44:14.891Z,64.98
2022-10-13T03:46:41.355Z,64.84
2022-10-13T03:49:07.711Z,64.92
2022-10-13T03:51:34.119Z,64.60
2022-10-13T03:54:00.625Z,64.66
2022-10-13T03:56:27.407Z,64.45
2022-10-13T03:58:59.246Z,64.54
2022-10-13T04:01:28.312Z,64.76
2022-10-13T04:03:55.856Z,64.87
2022-10-13T04:06:24.618Z,64.59
2022-10-13T04:08:51.640Z,64.65
2022-10-13T04:11:18.893Z,64.78
2022-10-13T04:13:45.964Z,64.79
2022-10-13T04:16:16.412Z,64.54
2022-10-13T04:18:44.896Z,64.82
2022-10-13T04:21:14.896Z,64.60
2022-10-13T04:23:41.795Z,64.60
2022-10-13T04:26:18.896Z,64.07
2022-10-13T04:28:46.934Z,64.32
2022-10-13T04:31:13.728Z,64.85
2022-10-13T04:33:40.309Z,64.48
2022-10-13T04:36:09.276Z,64.34
2022-10-13T04:38:35.653Z,64.68
2022-10-13T04:41:04.027Z,64.46
2022-10-13T04:43:31.019Z,64.55
2022-10-13T04:46:08.635Z,64.35
2022-10-13T04:48:35.066Z,64.69
2022-10-13T04:51:08.952Z,64.43
2022-10-13T04:53:35.918Z,64.67
2022-10-13T04:56:04.781Z,64.45
2022-10-13T04:58:31.885Z,64.80
2022-10-13T05:00:58.623Z,64.74
2022-10-13T05:03:25.969Z,64.66
2022-10-13T05:05:53.248Z,64.86
2022-10-13T05:08:19.927Z,64.79
2022-10-13T05:10:57.610Z,64.80
2022-10-13T05:13:25.323Z,64.73
2022-10-13T05:15:51.767Z,64.63
2022-10-13T05:18:18.217Z,64.70
2022-10-13T05:20:44.614Z,64.75
2022-10-13T05:23:10.953Z,64.63
2022-10-13T05:25:38.034Z,64.56
2022-10-13T05:28:06.558Z,64.69
2022-10-13T05:30:33.076Z,64.64
2022-10-13T05:32:59.688Z,64.63
2022-10-13T05:35:26.741Z,64.78
2022-10-13T05:37:53.253Z,64.18
2022-10-13T05:40:22.467Z,64.63
2022-10-13T05:42:50.731Z,64.61
2022-10-13T05:45:18.261Z,64.61
2022-10-13T05:47:44.634Z,64.75
2022-10-13T05:50:11.072Z,64.30
2022-10-13T05:52:37.849Z,64.58
2022-10-13T05:55:07.497Z,64.64
2022-10-13T05:57:38.126Z,64.50
2022-10-13T06:00:08.967Z,64.35
2022-10-13T06:03:03.226Z,64.45
2022-10-13T06:05:32.669Z,64.65
2022-10-13T06:08:00.058Z,64.71
2022-10-13T06:10:26.725Z,64.83
2022-10-13T06:12:53.054Z,64.87
2022-10-13T06:15:19.406Z,64.87
2022-10-13T06:17:45.856Z,64.94
2022-10-13T06:20:12.698Z,65.06
2022-10-13T06:22:39.208Z,65.10
2022-10-13T06:25:06.854Z,65.15
2022-10-13T06:27:33.474Z,65.24
2022-10-13T06:29:59.875Z,65.45
2022-10-13T06:32:26.952Z,65.47
2022-10-13T06:34:53.834Z,65.41
2022-10-13T06:37:23.440Z,65.35
2022-10-13T06:39:53.640Z,65.42
2022-10-13T06:42:20.326Z,65.17
2022-10-13T06:44:46.881Z,65.40
2022-10-13T06:47:13.419Z,65.55
2022-10-13T06:49:39.949Z,65.49
2022-10-13T06:52:06.349Z,65.48
2022-10-13T06:54:32.840Z,65.57
2022-10-13T06:56:59.197Z,65.48
2022-10-13T06:59:27.609Z,65.51
2022-10-13T07:01:54.419Z,65.32
2022-10-13T07:04:20.799Z,65.23
2022-10-13T07:06:47.151Z,65.31
2022-10-13T07:09:13.663Z,65.13
2022-10-13T07:11:40.201Z,65.37
2022-10-13T07:14:06.537Z,64.96
2022-10-13T07:16:32.864Z,65.32
2022-10-13T07:18:59.231Z,65.12
2022-10-13T07:21:25.644Z,65.00
2022-10-13T07:23:52.137Z,64.86
2022-10-13T07:26:18.554Z,64.94
2022-10-13T07:28:45.212Z,65.14
2022-10-13T07:31:15.403Z,64.59
2022-10-13T07:33:44.183Z,65.62
2022-10-13T07:36:11.347Z,65.47
2022-10-13T07:38:38.235Z,65.65
2022-10-13T07:41:06.331Z,65.46
2022-10-13T07:43:33.026Z,65.63
2022-10-13T07:46:01.577Z,65.27
2022-10-13T07:48:28.478Z,65.42
2022-10-13T07:50:54.906Z,65.19
2022-10-13T07:53:21.352Z,64.81
2022-10-13T07:55:47.872Z,64.63
2022-10-13T07:58:14.214Z,64.26
2022-10-13T08:00:40.602Z,64.23
2022-10-13T08:03:07.102Z,64.21
2022-10-13T08:05:33.632Z,64.14
2022-10-13T08:07:59.957Z,64.18
2022-10-13T08:10:26.382Z,64.07
2022-10-13T08:12:52.775Z,63.89
2022-10-13T08:15:19.117Z,63.62
2022-10-13T08:17:47.967Z,63.32
2022-10-13T08:20:14.335Z,63.03
2022-10-13T08:22:40.663Z,62.84
2022-10-13T08:25:07.475Z,62.41
2022-10-13T08:27:50.191Z,62.32
2022-10-13T08:30:18.535Z,62.13
2022-10-13T08:32:45.026Z,61.62
2022-10-13T08:35:11.677Z,61.79
2022-10-13T08:37:38.028Z,61.76
2022-10-13T08:40:04.730Z,61.77
2022-10-13T08:42:31.097Z,61.88
2022-10-13T08:48:17.335Z,61.74
2022-10-13T08:50:48.763Z,61.59
2022-10-13T08:53:28.062Z,61.91
2022-10-13T08:56:13.927Z,61.86
2022-10-13T08:58:42.370Z,62.08
2022-10-13T09:01:08.637Z,61.98
2022-10-13T09:03:42.080Z,62.02
2022-10-13T09:06:16.972Z,62.04
2022-10-13T09:08:52.494Z,61.95
2022-10-13T09:11:18.895Z,61.67
2022-10-13T09:13:45.294Z,61.78
2022-10-13T09:16:11.930Z,61.65
2022-10-13T09:18:38.659Z,61.67
2022-10-13T09:21:21.811Z,61.79
2022-10-13T09:23:53.959Z,61.67
2022-10-13T09:26:23.399Z,61.78
2022-10-13T09:28:52.082Z,61.89
2022-10-13T09:31:18.447Z,61.77
2022-10-13T09:33:46.406Z,62.07
2022-10-13T09:36:15.756Z,61.99
2022-10-13T09:39:06.486Z,61.99
2022-10-13T09:41:33.995Z,62.19
2022-10-13T09:44:12.477Z,62.31
2022-10-13T09:46:47.731Z,61.93
2022-10-13T09:49:44.850Z,61.99
2022-10-13T09:52:14.142Z,61.33
2022-10-13T09:54:40.626Z,60.65
2022-10-13T09:57:25.740Z,60.88
2022-10-13T09:59:58.751Z,60.51
2022-10-13T10:02:34.289Z,60.35
2022-10-13T10:05:07.520Z,59.65
2022-10-13T10:07:34.157Z,59.47
2022-10-13T10:10:13.341Z,59.42
2022-10-13T10:12:43.171Z,58.83
2022-10-13T10:15:46.532Z,58.75
2022-10-13T10:18:19.092Z,58.88
2022-10-13T10:20:52.352Z,58.46
2022-10-13T10:23:21.734Z,58.31
2022-10-13T10:25:57.938Z,58.29
2022-10-13T10:28:33.114Z,58.03
2022-10-13T10:31:14.815Z,57.94
2022-10-13T10:34:18.897Z,58.07
2022-10-13T10:37:15.212Z,57.61
2022-10-13T10:39:48.436Z,57.57
2022-10-13T10:42:42.434Z,57.62
2022-10-13T10:45:24.013Z,57.62
2022-10-13T10:48:04.641Z,57.52
2022-10-13T10:50:33.577Z,57.50
2022-10-13T10:53:27.831Z,57.27
2022-10-13T10:56:12.656Z,57.39
2022-10-13T10:59:00.753Z,56.95
2022-10-13T11:01:45.982Z,57.04
2022-10-13T11:04:30.773Z,57.11
2022-10-13T11:06:57.288Z,57.52
2022-10-13T11:09:41.767Z,57.43
2022-10-13T11:12:46.038Z,57.22
2022-10-13T11:15:24.551Z,57.20
2022-10-13T11:17:51.635Z,56.62
2022-10-13T11:20:21.006Z,56.85
2022-10-13T11:22:59.596Z,56.62
2022-10-13T11:25:39.923Z,56.53
2022-10-13T11:28:21.571Z,56.18
2022-10-13T11:30:50.737Z,55.69
2022-10-13T11:33:50.138Z,56.03
2022-10-13T11:36:35.877Z,55.86
2022-10-13T11:39:25.502Z,55.92
2022-10-13T11:42:05.564Z,55.88
2022-10-13T11:44:54.402Z,55.70
2022-10-13T11:47:55.382Z,55.95
2022-10-13T11:50:48.491Z,55.67
2022-10-13T11:53:19.003Z,55.23
2022-10-13T11:56:01.277Z,55.41
2022-10-13T11:58:35.169Z,55.33
2022-10-13T12:01:08.919Z,55.04
2022-10-13T12:03:41.030Z,55.52
2022-10-13T12:06:34.170Z,55.11
2022-10-13T12:09:07.442Z,55.03
2022-10-13T12:11:37.523Z,54.74
2022-10-13T12:14:08.158Z,54.79
2022-10-13T12:16:34.553Z,54.26
2022-10-13T12:19:20.572Z,54.12
2022-10-13T12:21:52.067Z,53.82
2022-10-13T12:24:21.300Z,53.33
2022-10-13T12:26:47.840Z,52.48
2022-10-13T12:29:15.490Z,52.50
2022-10-13T12:31:44.794Z,52.39
2022-10-13T12:34:28.258Z,52.63
2022-10-13T12:37:01.293Z,52.02
2022-10-13T12:39:30.785Z,51.90
2022-10-13T12:41:59.034Z,51.67
2022-10-13T12:44:29.043Z,51.81
2022-10-13T12:47:00.424Z,51.63
2022-10-13T12:49:29.221Z,51.61
2022-10-13T12:52:06.298Z,51.67
2022-10-13T12:54:34.851Z,51.21
2022-10-13T12:57:05.581Z,51.09
2022-10-13T12:59:32.329Z,50.65
2022-10-13T13:02:01.962Z,51.13
2022-10-13T13:04:46.736Z,51.04
2022-10-13T13:07:26.586Z,50.91
2022-10-13T13:10:15.244Z,50.79
2022-10-13T13:12:42.386Z,50.46
2022-10-13T13:15:27.353Z,50.86
2022-10-13T13:17:58.998Z,50.78
2022-10-13T13:20:31.696Z,50.97
2022-10-13T13:22:58.311Z,50.93
2022-10-13T13:25:25.021Z,50.71
2022-10-13T13:27:51.837Z,50.90
2022-10-13T13:30:21.205Z,50.25
2022-10-13T13:32:47.671Z,50.12
2022-10-13T13:35:14.104Z,49.63
2022-10-13T13:37:44.491Z,49.84
2022-10-13T13:40:16.927Z,49.73
2022-10-13T13:42:43.342Z,49.47
2022-10-13T13:45:17.387Z,49.43
2022-10-13T13:47:44.147Z,49.56
2022-10-13T13:50:20.702Z,49.52
2022-10-13T13:52:47.683Z,49.50
2022-10-13T13:55:14.181Z,49.60
2022-10-13T13:57:42.743Z,49.70
2022-10-13T14:00:12.168Z,49.74
2022-10-13T14:02:38.557Z,49.59
2022-10-13T14:05:05.769Z,49.53
2022-10-13T14:07:32.104Z,49.09
2022-10-13T14:10:01.813Z,49.69
2022-10-13T14:12:33.245Z,49.84
2022-10-13T14:14:59.875Z,49.53
2022-10-13T14:17:27.498Z,49.87
2022-10-13T14:19:54.116Z,49.87
2022-10-13T14:22:21.543Z,50.15
2022-10-13T14:24:48.193Z,50.09
2022-10-13T14:27:14.820Z,50.46
2022-10-13T14:29:41.187Z,50.61
2022-10-13T14:32:07.582Z,51.16
2022-10-13T14:34:34.058Z,51.37
2022-10-13T14:37:00.450Z,51.59
2022-10-13T14:39:26.870Z,52.39
2022-10-13T14:41:53.345Z,52.64
2022-10-13T14:44:19.703Z,52.78
2022-10-13T14:46:46.069Z,52.97
2022-10-13T14:49:12.724Z,53.44
2022-10-13T14:51:39.090Z,53.33
2022-10-13T14:54:06.899Z,53.74
2022-10-13T14:56:34.091Z,53.76
2022-10-13T14:59:02.448Z,54.33
2022-10-13T15:01:29.331Z,54.14
2022-10-13T15:03:56.127Z,54.63
2022-10-13T15:06:25.102Z,54.61
2022-10-13T15:08:52.209Z,54.73
2022-10-13T15:11:21.232Z,55.26
2022-10-13T15:13:47.881Z,55.28
2022-10-13T15:16:28.598Z,55.33
2022-10-13T15:18:55.682Z,55.76
2022-10-13T15:21:23.143Z,55.76
2022-10-13T15:23:49.954Z,56.01
2022-10-13T15:26:18.775Z,56.24
2022-10-13T15:28:48.010Z,56.58
2022-10-13T15:31:15.750Z,56.47
2022-10-13T15:33:46.951Z,56.88
2022-10-13T15:36:13.892Z,57.27
2022-10-13T15:38:40.466Z,57.41
2022-10-13T15:41:07.845Z,57.30
2022-10-13T15:43:34.834Z,57.69
2022-10-13T15:46:07.443Z,57.32
2022-10-13T15:48:34.726Z,57.27
2022-10-13T15:51:01.990Z,57.89
2022-10-13T15:53:29.690Z,57.81
2022-10-13T15:55:56.079Z,58.26
2022-10-13T15:58:22.627Z,58.14
2022-10-13T16:00:49.002Z,58.32
2022-10-13T16:03:17.426Z,58.32
2022-10-13T16:05:46.971Z,58.36
2022-10-13T16:08:14.386Z,58.58
2022-10-13T16:10:42.393Z,58.70
2022-10-13T16:13:12.329Z,58.95
2022-10-13T16:15:38.836Z,59.11
2022-10-13T16:18:05.282Z,58.93
2022-10-13T16:20:34.854Z,59.35
2022-10-13T16:23:01.638Z,59.21
2022-10-13T16:25:28.055Z,59.60
2022-10-13T16:27:54.385Z,59.49
2022-10-13T16:30:20.735Z,59.71
2022-10-13T16:32:47.100Z,59.59
2022-10-13T16:35:14.945Z,60.03
2022-10-13T16:37:41.347Z,59.96
2022-10-13T16:40:08.462Z,60.15
2022-10-13T16:42:34.789Z,60.73
2022-10-13T16:45:01.711Z,60.51
2022-10-13T16:47:28.047Z,60.85
2022-10-13T16:49:55.015Z,60.70
2022-10-13T16:52:21.421Z,60.78
2022-10-13T16:54:47.944Z,61.02
2022-10-13T16:57:14.353Z,61.06
2022-10-13T16:59:41.017Z,61.05
2022-10-13T17:02:14.459Z,61.02
2022-10-13T17:04:41.385Z,61.40
2022-10-13T17:07:08.171Z,61.46
2022-10-13T17:09:34.811Z,61.48
2022-10-13T17:12:02.100Z,61.60
2022-10-13T17:14:28.459Z,61.75
2022-10-13T17:16:57.714Z,61.34
2022-10-13T17:19:24.595Z,61.70
2022-10-13T17:21:50.984Z,61.76
2022-10-13T17:24:18.186Z,61.83
2022-10-13T17:26:44.660Z,61.74
2022-10-13T17:29:11.094Z,62.08
2022-10-13T17:31:37.450Z,61.69
2022-10-13T17:34:03.814Z,61.92
2022-10-13T17:36:34.216Z,62.02
2022-10-13T17:39:06.571Z,61.77
2022-10-13T17:41:33.465Z,62.21
2022-10-13T17:43:59.985Z,62.40
2022-10-13T17:46:39.339Z,62.04
2022-10-13T17:49:09.400Z,62.32
2022-10-13T17:51:35.798Z,62.57
2022-10-13T17:54:02.491Z,62.50
2022-10-13T17:56:29.390Z,62.90
2022-10-13T17:58:56.675Z,62.60
2022-10-13T18:01:26.715Z,62.39
2022-10-13T18:03:58.637Z,62.45
2022-10-13T18:06:25.489Z,62.71
2022-10-13T18:08:52.361Z,62.96
2022-10-13T18:11:21.827Z,62.62
2022-10-13T18:13:48.790Z,63.11
2022-10-13T18:16:18.381Z,62.87
2022-10-13T18:18:45.881Z,63.04
2022-10-13T18:21:14.556Z,63.04
2022-10-13T18:23:41.923Z,63.15
2022-10-13T18:26:20.007Z,63.14
2022-10-13T18:28:47.907Z,63.22
2022-10-13T18:31:23.374Z,62.99
2022-10-13T18:33:49.735Z,63.41
2022-10-13T18:36:23.899Z,63.23
2022-10-13T18:38:51.631Z,63.63
2022-10-13T18:41:19.118Z,63.52
2022-10-13T18:43:45.533Z,63.84
2022-10-13T18:46:11.996Z,63.73
2022-10-13T18:48:38.986Z,63.96
2022-10-13T18:51:07.412Z,64.16
2022-10-13T18:53:38.204Z,63.71
2022-10-13T18:56:07.779Z,63.91
2022-10-13T18:58:34.344Z,64.17
2022-10-13T19:01:07.698Z,63.73
2022-10-13T19:03:36.039Z,64.15
2022-10-13T19:06:04.656Z,64.00
2022-10-13T19:08:31.058Z,64.22
2022-10-13T19:10:57.527Z,64.45
2022-10-13T19:13:26.060Z,64.13
2022-10-13T19:15:59.145Z,63.96
2022-10-13T19:18:25.482Z,64.28
2022-10-13T19:20:51.863Z,64.10
2022-10-13T19:23:18.375Z,64.45
2022-10-13T19:25:44.943Z,64.35
2022-10-13T19:28:11.803Z,64.22
2022-10-13T19:30:39.266Z,64.23
2022-10-13T19:33:07.204Z,64.02
2022-10-13T19:36:00.296Z,64.12
2022-10-13T19:38:26.690Z,64.27
2022-10-13T19:40:53.125Z,63.87
2022-10-13T19:43:19.869Z,64.45
2022-10-13T19:45:59.621Z,64.48
2022-10-13T19:48:26.778Z,64.54
2022-10-13T19:50:53.215Z,64.98
2022-10-13T19:53:19.738Z,64.81
2022-10-13T19:55:47.436Z,64.63
2022-10-13T19:58:16.075Z,64.47
2022-10-13T20:00:46.426Z,64.29
2022-10-13T20:03:14.171Z,64.64
2022-10-13T20:05:41.007Z,64.83
2022-10-13T20:08:09.499Z,64.84
2022-10-13T20:10:40.478Z,64.57
2022-10-13T20:13:08.451Z,64.78
2022-10-13T20:15:39.582Z,64.85
2022-10-13T20:18:07.047Z,65.11
2022-10-13T20:20:34.625Z,65.10
2022-10-13T20:23:01.011Z,65.16
2022-10-13T20:25:27.604Z,64.88
2022-10-13T20:27:54.101Z,65.05
2022-10-13T20:30:20.481Z,65.07
2022-10-13T20:32:46.834Z,65.09
2022-10-13T20:35:13.475Z,65.08
2022-10-13T20:37:39.831Z,65.06
2022-10-13T20:40:06.743Z,64.97
2022-10-13T20:42:33.082Z,65.29
2022-10-13T20:44:59.438Z,65.22
2022-10-13T20:47:25.959Z,65.23
2022-10-13T20:49:52.503Z,65.06
2022-10-13T20:52:19.006Z,65.18
2022-10-13T20:54:45.348Z,65.42
2022-10-13T20:57:11.771Z,65.10
2022-10-13T20:59:38.240Z,65.40
2022-10-13T21:02:04.597Z,65.08
2022-10-13T21:04:31.114Z,65.38
2022-10-13T21:06:57.476Z,65.27
2022-10-13T21:09:23.881Z,65.14
2022-10-13T21:11:50.239Z,65.46
2022-10-13T21:14:16.637Z,65.39
2022-10-13T21:16:43.192Z,65.63
2022-10-13T21:19:09.698Z,65.43
2022-10-13T21:21:36.574Z,65.82
2022-10-13T21:24:05.501Z,65.51
2022-10-13T21:26:32.738Z,65.82
2022-10-13T21:28:59.505Z,65.68
2022-10-13T21:31:26.268Z,65.85
2022-10-13T21:33:53.571Z,65.58
2022-10-13T21:36:22.648Z,65.65
2022-10-13T21:38:52.370Z,65.62
2022-10-13T21:41:19.001Z,65.82
2022-10-13T21:43:45.372Z,65.67
2022-10-13T21:46:12.797Z,65.89
2022-10-13T21:48:39.255Z,66.06
2022-10-13T21:51:20.872Z,65.57
2022-10-13T21:53:55.793Z,65.50
2022-10-13T21:56:25.567Z,65.98
2022-10-13T21:58:52.723Z,66.14
2022-10-13T22:01:19.997Z,65.99
2022-10-13T22:03:47.620Z,65.94
2022-10-13T22:06:19.092Z,65.85
2022-10-13T22:08:48.060Z,65.70
2022-10-13T22:11:16.472Z,65.83
2022-10-13T22:13:43.191Z,66.18
2022-10-13T22:16:13.158Z,65.79
2022-10-13T22:18:39.569Z,65.68
2022-10-13T22:21:08.231Z,66.08
2022-10-13T22:23:34.686Z,66.22
2022-10-13T22:26:01.046Z,66.24
2022-10-13T22:28:27.516Z,66.00
2022-10-13T22:30:53.963Z,66.21
2022-10-13T22:33:20.887Z,66.17
2022-10-13T22:35:47.512Z,66.20
2022-10-13T22:38:14.747Z,66.07
2022-10-13T22:40:41.896Z,66.42
2022-10-13T22:43:08.831Z,66.85
2022-10-13T22:45:36.326Z,66.36
2022-10-13T22:48:02.895Z,66.37
2022-10-13T22:50:29.487Z,66.51
2022-10-13T22:52:55.849Z,66.65
2022-10-13T22:55:22.391Z,66.58
2022-10-13T22:57:48.781Z,66.57
2022-10-13T23:00:15.811Z,66.69
2022-10-13T23:02:42.151Z,66.66
2022-10-13T23:05:08.677Z,66.60
2022-10-13T23:07:35.036Z,66.79
2022-10-13T23:10:01.411Z,66.86
2022-10-13T23:12:27.739Z,66.65
2022-10-13T23:14:54.193Z,66.75
2022-10-13T23:17:20.817Z,66.74
2022-10-13T23:19:47.358Z,66.72
2022-10-13T23:22:13.876Z,66.75
2022-10-13T23:24:40.199Z,66.87
2022-10-13T23:27:06.558Z,66.64
2022-10-13T23:29:32.905Z,66.68
2022-10-13T23:31:59.270Z,66.61
2022-10-13T23:34:25.735Z,66.64
2022-10-13T23:36:52.079Z,66.78
2022-10-13T23:39:18.559Z,67.25
2022-10-13T23:41:45.074Z,66.92
2022-10-13T23:44:11.431Z,66.90
2022-10-13T23:46:37.750Z,67.06
2022-10-13T23:49:04.176Z,67.02
2022-10-13T23:51:30.703Z,66.91
2022-10-13T23:53:57.095Z,66.76
2022-10-13T23:56:23.700Z,66.96
2022-10-13T23:58:50.718Z,67.16
